sensor_id;sensor_type;location;lat;lon;timestamp;temperature;humidity
23562;DHT22;11959;49.418;8.728;2023-02-03T00:01:48;8.00;99.90
23562;DHT22;11959;49.418;8.728;2023-02-03T00:04:14;7.90;99.90
23562;DHT22;11959;49.418;8.728;2023-02-03T00:06:40;7.90;99.90
23562;DHT22;11959;49.418;8.728;2023-02-03T00:09:06;7.90;99.90
23562;DHT22;11959;49.418;8.728;2023-02-03T00:11:32;7.90;99.90
23562;DHT22;11959;49.418;8.728;2023-02-03T00:13:57;7.90;99.90
23562;DHT22;11959;49.418;8.728;2023-02-03T00:16:23;8.00;99.90
23562;DHT22;11959;49.418;8.728;2023-02-03T00:18:49;7.90;99.90
23562;DHT22;11959;49.418;8.728;2023-02-03T00:21:15;7.90;99.90
23562;DHT22;11959;49.418;8.728;2023-02-03T00:23:41;7.90;99.90
23562;DHT22;11959;49.418;8.728;2023-02-03T00:26:12;7.90;99.90
23562;DHT22;11959;49.418;8.728;2023-02-03T00:28:38;7.90;99.90
23562;DHT22;11959;49.418;8.728;2023-02-03T00:31:04;7.90;99.90
23562;DHT22;11959;49.418;8.728;2023-02-03T00:33:30;8.00;99.90
23562;DHT22;11959;49.418;8.728;2023-02-03T00:36:02;7.90;99.90
23562;DHT22;11959;49.418;8.728;2023-02-03T00:38:28;7.90;99.90
23562;DHT22;11959;49.418;8.728;2023-02-03T00:40:54;7.90;99.90
23562;DHT22;11959;49.418;8.728;2023-02-03T00:43:20;7.90;99.90
23562;DHT22;11959;49.418;8.728;2023-02-03T00:45:46;7.90;99.90
23562;DHT22;11959;49.418;8.728;2023-02-03T00:48:12;7.90;99.90
23562;DHT22;11959;49.418;8.728;2023-02-03T00:50:38;7.90;99.90
23562;DHT22;11959;49.418;8.728;2023-02-03T00:53:04;8.00;99.90
23562;DHT22;11959;49.418;8.728;2023-02-03T00:55:30;8.00;99.90
23562;DHT22;11959;49.418;8.728;2023-02-03T00:57:55;8.00;99.90
23562;DHT22;11959;49.418;8.728;2023-02-03T01:00:21;8.00;99.90
23562;DHT22;11959;49.418;8.728;2023-02-03T01:02:47;8.00;99.90
23562;DHT22;11959;49.418;8.728;2023-02-03T01:05:12;8.00;99.90
23562;DHT22;11959;49.418;8.728;2023-02-03T01:07:38;8.00;99.90
23562;DHT22;11959;49.418;8.728;2023-02-03T01:10:05;8.00;99.90
23562;DHT22;11959;49.418;8.728;2023-02-03T01:12:31;8.00;99.90
23562;DHT22;11959;49.418;8.728;2023-02-03T01:14:57;8.00;99.90
23562;DHT22;11959;49.418;8.728;2023-02-03T01:17:23;8.00;99.90
23562;DHT22;11959;49.418;8.728;2023-02-03T01:19:51;8.00;99.90
23562;DHT22;11959;49.418;8.728;2023-02-03T01:22:17;8.10;99.90
23562;DHT22;11959;49.418;8.728;2023-02-03T01:24:43;8.10;99.90
23562;DHT22;11959;49.418;8.728;2023-02-03T01:27:09;8.10;99.90
23562;DHT22;11959;49.418;8.728;2023-02-03T01:29:34;8.10;99.90
23562;DHT22;11959;49.418;8.728;2023-02-03T01:32:00;8.10;99.90
23562;DHT22;11959;49.418;8.728;2023-02-03T01:34:26;8.20;99.90
23562;DHT22;11959;49.418;8.728;2023-02-03T01:36:51;8.10;99.90
23562;DHT22;11959;49.418;8.728;2023-02-03T01:39:17;8.10;99.90
23562;DHT22;11959;49.418;8.728;2023-02-03T01:41:43;8.20;99.90
23562;DHT22;11959;49.418;8.728;2023-02-03T01:44:37;8.20;99.90
23562;DHT22;11959;49.418;8.728;2023-02-03T01:49:37;8.20;99.90
23562;DHT22;11959;49.418;8.728;2023-02-03T01:52:04;8.20;99.90
23562;DHT22;11959;49.418;8.728;2023-02-03T01:54:38;8.20;99.90
23562;DHT22;11959;49.418;8.728;2023-02-03T01:57:28;8.20;99.90
23562;DHT22;11959;49.418;8.728;2023-02-03T01:59:58;8.20;99.90
23562;DHT22;11959;49.418;8.728;2023-02-03T02:02:24;8.20;99.90
23562;DHT22;11959;49.418;8.728;2023-02-03T02:05:02;8.20;99.90
23562;DHT22;11959;49.418;8.728;2023-02-03T02:07:30;8.10;99.90
23562;DHT22;11959;49.418;8.728;2023-02-03T02:09:56;8.10;99.90
23562;DHT22;11959;49.418;8.728;2023-02-03T02:12:22;8.10;99.90
23562;DHT22;11959;49.418;8.728;2023-02-03T02:14:47;8.20;99.90
23562;DHT22;11959;49.418;8.728;2023-02-03T02:17:28;8.20;99.90
23562;DHT22;11959;49.418;8.728;2023-02-03T02:20:24;8.10;99.90
23562;DHT22;11959;49.418;8.728;2023-02-03T02:23:49;8.20;99.90
23562;DHT22;11959;49.418;8.728;2023-02-03T02:37:57;8.10;99.90
23562;DHT22;11959;49.418;8.728;2023-02-03T02:40:55;8.00;99.90
23562;DHT22;11959;49.418;8.728;2023-02-03T02:43:42;8.00;99.90
23562;DHT22;11959;49.418;8.728;2023-02-03T02:46:18;8.00;99.90
23562;DHT22;11959;49.418;8.728;2023-02-03T02:51:24;7.90;99.90
23562;DHT22;11959;49.418;8.728;2023-02-03T02:53:55;7.90;99.90
23562;DHT22;11959;49.418;8.728;2023-02-03T02:56:23;7.90;99.90
23562;DHT22;11959;49.418;8.728;2023-02-03T02:58:51;7.80;99.90
23562;DHT22;11959;49.418;8.728;2023-02-03T03:01:18;7.90;99.90
23562;DHT22;11959;49.418;8.728;2023-02-03T03:03:44;7.90;99.90
23562;DHT22;11959;49.418;8.728;2023-02-03T03:06:25;7.90;99.90
23562;DHT22;11959;49.418;8.728;2023-02-03T03:08:55;7.90;99.90
23562;DHT22;11959;49.418;8.728;2023-02-03T03:11:29;7.90;99.90
23562;DHT22;11959;49.418;8.728;2023-02-03T03:13:55;7.90;99.90
23562;DHT22;11959;49.418;8.728;2023-02-03T03:16:31;7.90;99.90
23562;DHT22;11959;49.418;8.728;2023-02-03T03:19:01;7.90;99.90
23562;DHT22;11959;49.418;8.728;2023-02-03T03:21:37;7.90;99.90
23562;DHT22;11959;49.418;8.728;2023-02-03T03:24:08;7.90;99.90
23562;DHT22;11959;49.418;8.728;2023-02-03T03:26:41;7.80;99.90
23562;DHT22;11959;49.418;8.728;2023-02-03T03:29:19;7.80;99.90
23562;DHT22;11959;49.418;8.728;2023-02-03T03:31:46;7.80;99.90
23562;DHT22;11959;49.418;8.728;2023-02-03T03:34:13;7.80;99.90
23562;DHT22;11959;49.418;8.728;2023-02-03T03:36:46;7.80;99.90
23562;DHT22;11959;49.418;8.728;2023-02-03T03:39:24;7.90;99.90
23562;DHT22;11959;49.418;8.728;2023-02-03T03:44:42;7.90;99.90
23562;DHT22;11959;49.418;8.728;2023-02-03T03:47:11;7.90;99.90
23562;DHT22;11959;49.418;8.728;2023-02-03T03:49:39;7.80;99.90
23562;DHT22;11959;49.418;8.728;2023-02-03T03:52:08;7.80;99.90
23562;DHT22;11959;49.418;8.728;2023-02-03T03:54:36;7.80;99.90
23562;DHT22;11959;49.418;8.728;2023-02-03T03:57:13;7.80;99.90
23562;DHT22;11959;49.418;8.728;2023-02-03T03:59:43;7.80;99.90
23562;DHT22;11959;49.418;8.728;2023-02-03T04:02:11;7.80;99.90
23562;DHT22;11959;49.418;8.728;2023-02-03T04:04:38;7.70;99.90
23562;DHT22;11959;49.418;8.728;2023-02-03T04:07:04;7.70;99.90
23562;DHT22;11959;49.418;8.728;2023-02-03T04:09:29;7.70;99.90
23562;DHT22;11959;49.418;8.728;2023-02-03T04:11:55;7.70;99.90
23562;DHT22;11959;49.418;8.728;2023-02-03T04:14:35;7.70;99.90
23562;DHT22;11959;49.418;8.728;2023-02-03T04:17:05;7.70;99.90
23562;DHT22;11959;49.418;8.728;2023-02-03T04:19:31;7.70;99.90
23562;DHT22;11959;49.418;8.728;2023-02-03T04:21:56;7.70;99.90
23562;DHT22;11959;49.418;8.728;2023-02-03T04:24:22;7.70;99.90
23562;DHT22;11959;49.418;8.728;2023-02-03T04:26:48;7.70;99.90
23562;DHT22;11959;49.418;8.728;2023-02-03T04:29:13;7.60;99.90
23562;DHT22;11959;49.418;8.728;2023-02-03T04:31:39;7.70;99.90
23562;DHT22;11959;49.418;8.728;2023-02-03T04:34:06;7.60;99.90
23562;DHT22;11959;49.418;8.728;2023-02-03T04:36:32;7.60;99.90
23562;DHT22;11959;49.418;8.728;2023-02-03T04:38:57;7.70;99.90
23562;DHT22;11959;49.418;8.728;2023-02-03T04:41:23;7.60;99.90
23562;DHT22;11959;49.418;8.728;2023-02-03T04:43:49;7.60;99.90
23562;DHT22;11959;49.418;8.728;2023-02-03T04:46:14;7.60;99.90
23562;DHT22;11959;49.418;8.728;2023-02-03T04:48:40;7.60;99.90
23562;DHT22;11959;49.418;8.728;2023-02-03T04:51:07;7.70;99.90
23562;DHT22;11959;49.418;8.728;2023-02-03T04:53:33;7.70;99.90
23562;DHT22;11959;49.418;8.728;2023-02-03T04:55:59;7.60;99.90
23562;DHT22;11959;49.418;8.728;2023-02-03T04:58:25;7.60;99.90
23562;DHT22;11959;49.418;8.728;2023-02-03T05:00:52;7.60;99.90
23562;DHT22;11959;49.418;8.728;2023-02-03T05:03:17;7.60;99.90
23562;DHT22;11959;49.418;8.728;2023-02-03T05:05:43;7.60;99.90
23562;DHT22;11959;49.418;8.728;2023-02-03T05:08:09;7.70;99.90
23562;DHT22;11959;49.418;8.728;2023-02-03T05:10:34;7.70;99.90
23562;DHT22;11959;49.418;8.728;2023-02-03T05:13:00;7.60;99.90
23562;DHT22;11959;49.418;8.728;2023-02-03T05:15:25;7.70;99.90
23562;DHT22;11959;49.418;8.728;2023-02-03T05:17:52;7.60;99.90
23562;DHT22;11959;49.418;8.728;2023-02-03T05:20:18;7.60;99.90
23562;DHT22;11959;49.418;8.728;2023-02-03T05:22:44;7.70;99.90
23562;DHT22;11959;49.418;8.728;2023-02-03T05:25:09;7.70;99.90
23562;DHT22;11959;49.418;8.728;2023-02-03T05:27:37;7.70;99.90
23562;DHT22;11959;49.418;8.728;2023-02-03T05:30:03;7.70;99.90
23562;DHT22;11959;49.418;8.728;2023-02-03T05:32:29;7.70;99.90
23562;DHT22;11959;49.418;8.728;2023-02-03T05:34:55;7.70;99.90
23562;DHT22;11959;49.418;8.728;2023-02-03T05:37:20;7.70;99.90
23562;DHT22;11959;49.418;8.728;2023-02-03T05:39:46;7.70;99.90
23562;DHT22;11959;49.418;8.728;2023-02-03T05:42:11;7.60;99.90
23562;DHT22;11959;49.418;8.728;2023-02-03T05:44:37;7.70;99.90
23562;DHT22;11959;49.418;8.728;2023-02-03T05:47:03;7.60;99.90
23562;DHT22;11959;49.418;8.728;2023-02-03T05:49:28;7.60;99.90
23562;DHT22;11959;49.418;8.728;2023-02-03T05:51:55;7.60;99.90
23562;DHT22;11959;49.418;8.728;2023-02-03T05:54:21;7.70;99.90
23562;DHT22;11959;49.418;8.728;2023-02-03T05:56:47;7.60;99.90
23562;DHT22;11959;49.418;8.728;2023-02-03T05:59:12;7.70;99.90
23562;DHT22;11959;49.418;8.728;2023-02-03T06:01:38;7.60;99.90
23562;DHT22;11959;49.418;8.728;2023-02-03T06:04:04;7.60;99.90
23562;DHT22;11959;49.418;8.728;2023-02-03T06:06:30;7.50;99.90
23562;DHT22;11959;49.418;8.728;2023-02-03T06:09:04;7.50;99.90
23562;DHT22;11959;49.418;8.728;2023-02-03T06:11:30;7.50;99.90
23562;DHT22;11959;49.418;8.728;2023-02-03T06:13:57;7.50;99.90
23562;DHT22;11959;49.418;8.728;2023-02-03T06:16:26;7.50;99.90
23562;DHT22;11959;49.418;8.728;2023-02-03T06:18:53;7.50;99.90
23562;DHT22;11959;49.418;8.728;2023-02-03T06:21:20;7.40;99.90
23562;DHT22;11959;49.418;8.728;2023-02-03T06:23:46;7.50;99.90
23562;DHT22;11959;49.418;8.728;2023-02-03T06:26:12;7.40;99.90
23562;DHT22;11959;49.418;8.728;2023-02-03T06:28:38;7.50;99.90
23562;DHT22;11959;49.418;8.728;2023-02-03T06:31:04;7.40;99.90
23562;DHT22;11959;49.418;8.728;2023-02-03T06:33:30;7.40;99.90
23562;DHT22;11959;49.418;8.728;2023-02-03T06:35:56;7.40;99.90
23562;DHT22;11959;49.418;8.728;2023-02-03T06:38:22;7.50;99.90
23562;DHT22;11959;49.418;8.728;2023-02-03T06:40:48;7.50;99.90
23562;DHT22;11959;49.418;8.728;2023-02-03T06:43:14;7.50;99.90
23562;DHT22;11959;49.418;8.728;2023-02-03T06:45:40;7.50;99.90
23562;DHT22;11959;49.418;8.728;2023-02-03T06:48:05;7.50;99.90
23562;DHT22;11959;49.418;8.728;2023-02-03T06:50:32;7.50;99.90
23562;DHT22;11959;49.418;8.728;2023-02-03T06:52:58;7.50;99.90
23562;DHT22;11959;49.418;8.728;2023-02-03T06:55:23;7.50;99.90
23562;DHT22;11959;49.418;8.728;2023-02-03T06:57:49;7.50;99.90
23562;DHT22;11959;49.418;8.728;2023-02-03T07:00:16;7.50;99.90
23562;DHT22;11959;49.418;8.728;2023-02-03T07:02:42;7.60;99.90
23562;DHT22;11959;49.418;8.728;2023-02-03T07:05:09;7.60;99.90
23562;DHT22;11959;49.418;8.728;2023-02-03T07:07:35;7.60;99.90
23562;DHT22;11959;49.418;8.728;2023-02-03T07:10:03;7.60;99.90
23562;DHT22;11959;49.418;8.728;2023-02-03T07:12:30;7.60;99.90
23562;DHT22;11959;49.418;8.728;2023-02-03T07:14:55;7.50;99.90
23562;DHT22;11959;49.418;8.728;2023-02-03T07:17:21;7.60;99.90
23562;DHT22;11959;49.418;8.728;2023-02-03T07:19:47;7.60;99.90
23562;DHT22;11959;49.418;8.728;2023-02-03T07:22:12;7.60;99.90
23562;DHT22;11959;49.418;8.728;2023-02-03T07:24:38;7.60;99.90
23562;DHT22;11959;49.418;8.728;2023-02-03T07:27:04;7.60;99.90
23562;DHT22;11959;49.418;8.728;2023-02-03T07:29:29;7.60;99.90
23562;DHT22;11959;49.418;8.728;2023-02-03T07:31:55;7.60;99.90
23562;DHT22;11959;49.418;8.728;2023-02-03T07:34:21;7.60;99.90
23562;DHT22;11959;49.418;8.728;2023-02-03T07:36:47;7.60;99.90
23562;DHT22;11959;49.418;8.728;2023-02-03T07:39:12;7.60;99.90
23562;DHT22;11959;49.418;8.728;2023-02-03T07:41:38;7.70;99.90
23562;DHT22;11959;49.418;8.728;2023-02-03T07:44:04;7.70;99.90
23562;DHT22;11959;49.418;8.728;2023-02-03T07:46:30;7.70;99.90
23562;DHT22;11959;49.418;8.728;2023-02-03T07:48:56;7.60;99.90
23562;DHT22;11959;49.418;8.728;2023-02-03T07:51:21;7.70;99.90
23562;DHT22;11959;49.418;8.728;2023-02-03T07:53:47;7.70;99.90
23562;DHT22;11959;49.418;8.728;2023-02-03T07:56:12;7.70;99.90
23562;DHT22;11959;49.418;8.728;2023-02-03T07:58:38;7.70;99.90
23562;DHT22;11959;49.418;8.728;2023-02-03T08:01:15;7.60;99.90
23562;DHT22;11959;49.418;8.728;2023-02-03T08:03:41;7.60;99.90
23562;DHT22;11959;49.418;8.728;2023-02-03T08:06:07;7.60;99.90
23562;DHT22;11959;49.418;8.728;2023-02-03T08:08:33;7.60;99.90
23562;DHT22;11959;49.418;8.728;2023-02-03T08:10:59;7.60;99.90
23562;DHT22;11959;49.418;8.728;2023-02-03T08:13:25;7.60;99.90
23562;DHT22;11959;49.418;8.728;2023-02-03T08:15:50;7.70;99.90
23562;DHT22;11959;49.418;8.728;2023-02-03T08:18:16;7.70;99.90
23562;DHT22;11959;49.418;8.728;2023-02-03T08:20:42;7.70;99.90
23562;DHT22;11959;49.418;8.728;2023-02-03T08:23:07;7.70;99.90
23562;DHT22;11959;49.418;8.728;2023-02-03T08:25:33;7.70;99.90
23562;DHT22;11959;49.418;8.728;2023-02-03T08:27:59;7.70;99.90
23562;DHT22;11959;49.418;8.728;2023-02-03T08:30:25;7.70;99.90
23562;DHT22;11959;49.418;8.728;2023-02-03T08:32:50;7.70;99.90
23562;DHT22;11959;49.418;8.728;2023-02-03T08:35:16;7.70;99.90
23562;DHT22;11959;49.418;8.728;2023-02-03T08:37:42;7.70;99.90
23562;DHT22;11959;49.418;8.728;2023-02-03T08:40:10;7.70;99.90
23562;DHT22;11959;49.418;8.728;2023-02-03T08:42:36;7.70;99.90
23562;DHT22;11959;49.418;8.728;2023-02-03T08:45:02;7.70;99.90
23562;DHT22;11959;49.418;8.728;2023-02-03T08:47:27;7.70;99.90
23562;DHT22;11959;49.418;8.728;2023-02-03T08:49:53;7.80;99.90
23562;DHT22;11959;49.418;8.728;2023-02-03T08:52:18;7.80;99.90
23562;DHT22;11959;49.418;8.728;2023-02-03T08:54:44;7.80;99.90
23562;DHT22;11959;49.418;8.728;2023-02-03T08:57:10;7.80;99.90
23562;DHT22;11959;49.418;8.728;2023-02-03T08:59:40;7.80;99.90
23562;DHT22;11959;49.418;8.728;2023-02-03T09:02:10;7.80;99.90
23562;DHT22;11959;49.418;8.728;2023-02-03T09:04:36;7.90;99.90
23562;DHT22;11959;49.418;8.728;2023-02-03T09:07:02;8.00;99.90
23562;DHT22;11959;49.418;8.728;2023-02-03T09:09:29;7.90;99.90
23562;DHT22;11959;49.418;8.728;2023-02-03T09:11:55;8.00;99.90
23562;DHT22;11959;49.418;8.728;2023-02-03T09:14:30;8.00;99.90
23562;DHT22;11959;49.418;8.728;2023-02-03T09:16:58;8.00;99.90
23562;DHT22;11959;49.418;8.728;2023-02-03T09:19:23;8.00;99.90
23562;DHT22;11959;49.418;8.728;2023-02-03T09:21:49;8.00;99.90
23562;DHT22;11959;49.418;8.728;2023-02-03T09:24:16;8.00;99.90
23562;DHT22;11959;49.418;8.728;2023-02-03T09:26:42;8.00;99.90
23562;DHT22;11959;49.418;8.728;2023-02-03T09:29:08;8.00;99.90
23562;DHT22;11959;49.418;8.728;2023-02-03T09:31:33;8.00;99.90
23562;DHT22;11959;49.418;8.728;2023-02-03T09:33:59;8.00;99.90
23562;DHT22;11959;49.418;8.728;2023-02-03T09:36:25;8.00;99.90
23562;DHT22;11959;49.418;8.728;2023-02-03T09:38:51;8.00;99.90
23562;DHT22;11959;49.418;8.728;2023-02-03T09:47:17;8.00;99.90
23562;DHT22;11959;49.418;8.728;2023-02-03T09:49:54;8.00;99.90
23562;DHT22;11959;49.418;8.728;2023-02-03T09:52:27;8.10;99.90
23562;DHT22;11959;49.418;8.728;2023-02-03T09:55:03;8.10;99.90
23562;DHT22;11959;49.418;8.728;2023-02-03T09:57:34;8.10;99.90
23562;DHT22;11959;49.418;8.728;2023-02-03T10:00:05;8.10;99.90
23562;DHT22;11959;49.418;8.728;2023-02-03T10:03:06;8.10;99.90
23562;DHT22;11959;49.418;8.728;2023-02-03T10:05:55;8.20;99.90
23562;DHT22;11959;49.418;8.728;2023-02-03T10:19:08;8.30;99.90
23562;DHT22;11959;49.418;8.728;2023-02-03T10:24:08;8.30;99.90
23562;DHT22;11959;49.418;8.728;2023-02-03T10:26:36;8.30;99.90
23562;DHT22;11959;49.418;8.728;2023-02-03T10:29:13;8.30;99.90
23562;DHT22;11959;49.418;8.728;2023-02-03T10:31:41;8.30;99.90
23562;DHT22;11959;49.418;8.728;2023-02-03T10:34:11;8.30;99.90
23562;DHT22;11959;49.418;8.728;2023-02-03T10:37:04;8.20;99.90
23562;DHT22;11959;49.418;8.728;2023-02-03T10:39:41;8.30;99.90
23562;DHT22;11959;49.418;8.728;2023-02-03T10:42:10;8.30;99.90
23562;DHT22;11959;49.418;8.728;2023-02-03T10:44:45;8.20;99.90
23562;DHT22;11959;49.418;8.728;2023-02-03T10:47:33;8.30;99.90
23562;DHT22;11959;49.418;8.728;2023-02-03T10:50:22;8.20;99.90
23562;DHT22;11959;49.418;8.728;2023-02-03T10:52:49;8.30;99.90
23562;DHT22;11959;49.418;8.728;2023-02-03T10:57:49;8.30;99.90
23562;DHT22;11959;49.418;8.728;2023-02-03T11:00:27;8.30;99.90
23562;DHT22;11959;49.418;8.728;2023-02-03T11:03:04;8.30;99.90
23562;DHT22;11959;49.418;8.728;2023-02-03T11:05:31;8.30;99.90
23562;DHT22;11959;49.418;8.728;2023-02-03T11:07:56;8.30;99.90
23562;DHT22;11959;49.418;8.728;2023-02-03T11:13:23;8.30;99.90
23562;DHT22;11959;49.418;8.728;2023-02-03T11:15:53;8.30;99.90
23562;DHT22;11959;49.418;8.728;2023-02-03T11:21:15;8.30;99.90
23562;DHT22;11959;49.418;8.728;2023-02-03T11:26:30;8.20;99.90
23562;DHT22;11959;49.418;8.728;2023-02-03T11:28:58;8.30;99.90
23562;DHT22;11959;49.418;8.728;2023-02-03T11:31:27;8.30;99.90
23562;DHT22;11959;49.418;8.728;2023-02-03T11:33:57;8.30;99.90
23562;DHT22;11959;49.418;8.728;2023-02-03T11:36:25;8.30;99.90
23562;DHT22;11959;49.418;8.728;2023-02-03T11:41:39;8.30;99.90
23562;DHT22;11959;49.418;8.728;2023-02-03T11:44:19;8.30;99.90
23562;DHT22;11959;49.418;8.728;2023-02-03T11:46:47;8.30;99.90
23562;DHT22;11959;49.418;8.728;2023-02-03T12:03:15;8.50;99.90
23562;DHT22;11959;49.418;8.728;2023-02-03T12:09:04;8.50;99.90
23562;DHT22;11959;49.418;8.728;2023-02-03T12:17:16;8.50;99.90
23562;DHT22;11959;49.418;8.728;2023-02-03T12:20:02;8.40;99.90
23562;DHT22;11959;49.418;8.728;2023-02-03T12:22:45;8.40;99.90
23562;DHT22;11959;49.418;8.728;2023-02-03T12:30:45;8.40;99.90
23562;DHT22;11959;49.418;8.728;2023-02-03T12:33:22;8.30;99.90
23562;DHT22;11959;49.418;8.728;2023-02-03T12:35:55;8.40;99.90
23562;DHT22;11959;49.418;8.728;2023-02-03T12:38:38;8.30;99.90
23562;DHT22;11959;49.418;8.728;2023-02-03T12:41:10;8.30;99.90
23562;DHT22;11959;49.418;8.728;2023-02-03T12:43:42;8.30;99.90
23562;DHT22;11959;49.418;8.728;2023-02-03T12:46:36;8.40;99.90
23562;DHT22;11959;49.418;8.728;2023-02-03T12:54:36;8.40;99.90
23562;DHT22;11959;49.418;8.728;2023-02-03T13:00:12;8.50;99.90
23562;DHT22;11959;49.418;8.728;2023-02-03T13:05:49;8.50;99.90
23562;DHT22;11959;49.418;8.728;2023-02-03T13:11:09;8.60;99.90
23562;DHT22;11959;49.418;8.728;2023-02-03T13:13:51;8.70;99.90
23562;DHT22;11959;49.418;8.728;2023-02-03T13:16:23;8.70;99.90
23562;DHT22;11959;49.418;8.728;2023-02-03T13:18:58;8.80;99.90
23562;DHT22;11959;49.418;8.728;2023-02-03T13:21:26;8.80;99.90
23562;DHT22;11959;49.418;8.728;2023-02-03T13:23:52;8.80;99.90
23562;DHT22;11959;49.418;8.728;2023-02-03T13:34:51;8.90;99.90
23562;DHT22;11959;49.418;8.728;2023-02-03T13:37:37;9.00;99.90
23562;DHT22;11959;49.418;8.728;2023-02-03T13:40:11;9.00;99.90
23562;DHT22;11959;49.418;8.728;2023-02-03T13:42:51;9.00;99.90
23562;DHT22;11959;49.418;8.728;2023-02-03T13:45:21;9.00;99.90
23562;DHT22;11959;49.418;8.728;2023-02-03T13:47:50;9.00;99.90
23562;DHT22;11959;49.418;8.728;2023-02-03T13:50:28;9.00;99.90
23562;DHT22;11959;49.418;8.728;2023-02-03T13:55:44;9.10;99.90
23562;DHT22;11959;49.418;8.728;2023-02-03T13:58:33;9.10;99.90
23562;DHT22;11959;49.418;8.728;2023-02-03T14:01:01;9.20;99.90
23562;DHT22;11959;49.418;8.728;2023-02-03T14:05:54;9.20;99.90
23562;DHT22;11959;49.418;8.728;2023-02-03T14:16:51;9.10;99.90
23562;DHT22;11959;49.418;8.728;2023-02-03T14:21:57;9.20;99.90
23562;DHT22;11959;49.418;8.728;2023-02-03T14:24:30;9.20;99.90
23562;DHT22;11959;49.418;8.728;2023-02-03T14:26:57;9.20;99.90
23562;DHT22;11959;49.418;8.728;2023-02-03T14:29:34;9.20;99.90
23562;DHT22;11959;49.418;8.728;2023-02-03T14:32:08;9.20;99.90
23562;DHT22;11959;49.418;8.728;2023-02-03T14:34:41;9.20;99.90
23562;DHT22;11959;49.418;8.728;2023-02-03T14:56:45;9.30;99.90
23562;DHT22;11959;49.418;8.728;2023-02-03T14:59:37;9.30;99.90
23562;DHT22;11959;49.418;8.728;2023-02-03T15:04:30;9.30;99.90
23562;DHT22;11959;49.418;8.728;2023-02-03T15:06:56;9.30;99.90
23562;DHT22;11959;49.418;8.728;2023-02-03T15:11:50;9.30;99.90
23562;DHT22;11959;49.418;8.728;2023-02-03T15:14:27;9.30;99.90
23562;DHT22;11959;49.418;8.728;2023-02-03T15:17:00;9.30;99.90
23562;DHT22;11959;49.418;8.728;2023-02-03T15:19:32;9.30;99.90
23562;DHT22;11959;49.418;8.728;2023-02-03T15:21:59;9.30;99.90
23562;DHT22;11959;49.418;8.728;2023-02-03T15:24:24;9.30;99.90
23562;DHT22;11959;49.418;8.728;2023-02-03T15:26:54;9.40;99.90
23562;DHT22;11959;49.418;8.728;2023-02-03T15:29:29;9.30;99.90
23562;DHT22;11959;49.418;8.728;2023-02-03T15:34:56;9.30;99.90
23562;DHT22;11959;49.418;8.728;2023-02-03T15:40:03;9.30;99.90
23562;DHT22;11959;49.418;8.728;2023-02-03T15:45:32;9.30;99.90
23562;DHT22;11959;49.418;8.728;2023-02-03T15:50:52;9.20;99.90
23562;DHT22;11959;49.418;8.728;2023-02-03T15:53:29;9.20;99.90
23562;DHT22;11959;49.418;8.728;2023-02-03T15:55:58;9.10;99.90
23562;DHT22;11959;49.418;8.728;2023-02-03T15:58:28;9.10;99.90
23562;DHT22;11959;49.418;8.728;2023-02-03T16:00:59;9.10;99.90
23562;DHT22;11959;49.418;8.728;2023-02-03T16:03:36;9.10;99.90
23562;DHT22;11959;49.418;8.728;2023-02-03T16:08:47;9.10;99.90
23562;DHT22;11959;49.418;8.728;2023-02-03T16:11:22;9.00;99.90
23562;DHT22;11959;49.418;8.728;2023-02-03T16:13:52;8.90;99.90
23562;DHT22;11959;49.418;8.728;2023-02-03T16:16:33;9.00;99.90
23562;DHT22;11959;49.418;8.728;2023-02-03T16:19:02;9.00;99.90
23562;DHT22;11959;49.418;8.728;2023-02-03T16:23:57;9.00;99.90
23562;DHT22;11959;49.418;8.728;2023-02-03T16:26:25;8.90;99.90
23562;DHT22;11959;49.418;8.728;2023-02-03T16:31:48;8.90;99.90
23562;DHT22;11959;49.418;8.728;2023-02-03T16:34:33;8.90;99.90
23562;DHT22;11959;49.418;8.728;2023-02-03T16:37:30;8.90;99.90
23562;DHT22;11959;49.418;8.728;2023-02-03T16:40:20;8.90;99.90
23562;DHT22;11959;49.418;8.728;2023-02-03T16:43:10;8.90;99.90
23562;DHT22;11959;49.418;8.728;2023-02-03T16:45:56;8.90;99.90
23562;DHT22;11959;49.418;8.728;2023-02-03T16:48:40;8.80;99.90
23562;DHT22;11959;49.418;8.728;2023-02-03T16:51:26;8.90;99.90
23562;DHT22;11959;49.418;8.728;2023-02-03T16:53:53;8.80;99.90
23562;DHT22;11959;49.418;8.728;2023-02-03T16:56:19;8.90;99.90
23562;DHT22;11959;49.418;8.728;2023-02-03T16:58:44;8.90;99.90
23562;DHT22;11959;49.418;8.728;2023-02-03T17:01:10;8.90;99.90
23562;DHT22;11959;49.418;8.728;2023-02-03T17:03:37;8.90;99.90
23562;DHT22;11959;49.418;8.728;2023-02-03T17:06:08;8.90;99.90
23562;DHT22;11959;49.418;8.728;2023-02-03T17:08:34;8.90;99.90
23562;DHT22;11959;49.418;8.728;2023-02-03T17:11:10;8.90;99.90
23562;DHT22;11959;49.418;8.728;2023-02-03T17:13:37;8.90;99.90
23562;DHT22;11959;49.418;8.728;2023-02-03T17:16:08;8.90;99.90
23562;DHT22;11959;49.418;8.728;2023-02-03T17:18:34;8.90;99.90
23562;DHT22;11959;49.418;8.728;2023-02-03T17:21:10;8.90;99.90
23562;DHT22;11959;49.418;8.728;2023-02-03T17:23:37;8.80;99.90
23562;DHT22;11959;49.418;8.728;2023-02-03T17:26:02;8.80;99.90
23562;DHT22;11959;49.418;8.728;2023-02-03T17:28:28;8.80;99.90
23562;DHT22;11959;49.418;8.728;2023-02-03T17:31:02;8.90;99.90
23562;DHT22;11959;49.418;8.728;2023-02-03T17:33:29;8.80;99.90
23562;DHT22;11959;49.418;8.728;2023-02-03T17:36:00;8.80;99.90
23562;DHT22;11959;49.418;8.728;2023-02-03T17:38:26;8.70;99.90
23562;DHT22;11959;49.418;8.728;2023-02-03T17:40:52;8.70;99.90
23562;DHT22;11959;49.418;8.728;2023-02-03T17:43:18;8.70;99.90
23562;DHT22;11959;49.418;8.728;2023-02-03T17:45:43;8.60;99.90
23562;DHT22;11959;49.418;8.728;2023-02-03T17:48:09;8.60;99.90
23562;DHT22;11959;49.418;8.728;2023-02-03T17:50:36;8.70;99.90
23562;DHT22;11959;49.418;8.728;2023-02-03T17:53:02;8.70;99.90
23562;DHT22;11959;49.418;8.728;2023-02-03T17:55:29;8.70;99.90
23562;DHT22;11959;49.418;8.728;2023-02-03T17:57:54;8.60;99.90
23562;DHT22;11959;49.418;8.728;2023-02-03T18:00:20;8.70;99.90
23562;DHT22;11959;49.418;8.728;2023-02-03T18:02:50;8.70;99.90
23562;DHT22;11959;49.418;8.728;2023-02-03T18:05:16;8.60;99.90
23562;DHT22;11959;49.418;8.728;2023-02-03T18:07:43;8.60;99.90
23562;DHT22;11959;49.418;8.728;2023-02-03T18:10:08;8.60;99.90
23562;DHT22;11959;49.418;8.728;2023-02-03T18:12:34;8.60;99.90
23562;DHT22;11959;49.418;8.728;2023-02-03T18:15:00;8.70;99.90
23562;DHT22;11959;49.418;8.728;2023-02-03T18:17:25;8.60;99.90
23562;DHT22;11959;49.418;8.728;2023-02-03T18:19:51;8.60;99.90
23562;DHT22;11959;49.418;8.728;2023-02-03T18:22:16;8.70;99.90
23562;DHT22;11959;49.418;8.728;2023-02-03T18:24:42;8.70;99.90
23562;DHT22;11959;49.418;8.728;2023-02-03T18:27:10;8.70;99.90
23562;DHT22;11959;49.418;8.728;2023-02-03T18:29:45;8.80;99.90
23562;DHT22;11959;49.418;8.728;2023-02-03T18:32:13;8.80;99.90
23562;DHT22;11959;49.418;8.728;2023-02-03T18:34:39;8.80;99.90
23562;DHT22;11959;49.418;8.728;2023-02-03T18:37:05;8.80;99.90
23562;DHT22;11959;49.418;8.728;2023-02-03T18:39:31;8.90;99.90
23562;DHT22;11959;49.418;8.728;2023-02-03T18:41:56;8.90;99.90
23562;DHT22;11959;49.418;8.728;2023-02-03T18:44:22;8.90;99.90